Terminal Aerodrome Forecast
Issued by NWS

Home | Current Version | Previous Version | Graphics & Text | Print | Product List | Glossary On
Versions: 1 2 3 4 5 6 7 8 9 10 11 12 13 14
547
FTUS43 KICT 211735
TAFHUT
TAF
KHUT 211735Z 2118/2218 04015G22KT P6SM VCSH BKN025
     FM212200 02015KT 5SM -RA OVC015
     FM220400 01016G23KT P6SM BKN015=

USA.gov is the U.S. government's official web portal to all federal, state and local government web resources and services.